MiSS Morgan — WDI3462 — position and weather

sailwx.info

Track history (hours):
 
Tides and Currents Weather Stations Pressure Air Temp Water Temp Dewpoint Dewpoint Depression Visibility Wind Speed Wind Dir Waves Ship Positions

MiSS Morgan

Owner: SEAWARD MARINE CORPORATION, CHESAPEAKE, VA. More information available from US FCC via Universal Licensing System and Coast Guard Vessel Documentation Center.

Last reported at 2018-Feb-13 22:20 UTC. Time now 2018-Feb-24 17:59 UTC.
Position N 36°46' W 076°18'.
Warning: this ship's position is 10 days out of date.

Length 22 m; draft 3 m.

Type: Towing. MMSI: 367028740.

Date/timePositionNaut miles runAvg speedWind from/ knotsBaromVisibWave heightAir tempDewpointWater temp
2018-Feb-13 22:20N 36°46' W 076°18'0 0.1
2018-Feb-13 22:00N 36°46' W 076°18'0 0.0
2018-Feb-13 21:30N 36°46' W 076°18'0 0.0
2018-Feb-13 21:00N 36°46' W 076°18'0 0.2
2018-Feb-13 20:30N 36°46' W 076°18'0 0.2
2018-Feb-13 20:00N 36°46' W 076°18'1 2.1
2018-Feb-13 19:30N 36°47' W 076°18'1 1.9
2018-Feb-13 19:00N 36°48' W 076°18'2 3.3
2018-Feb-13 18:30N 36°49' W 076°17'1 2.8
2018-Feb-13 18:00N 36°51' W 076°18'2 4.4
2018-Feb-13 17:30N 36°52' W 076°20'3 4.5
2018-Feb-13 16:56N 36°55' W 076°20'2 4.4
2018-Feb-13 16:26N 36°57' W 076°20'1 1.7
2018-Feb-13 15:56N 36°58' W 076°20'0 0.2
2018-Feb-13 15:30N 36°58' W 076°20'2 4.3
2018-Feb-13 15:00N 36°55' W 076°20'4 8.6
2018-Feb-13 14:30N 36°51' W 076°19'4 7.7
2018-Feb-13 14:00N 36°48' W 076°18'  
2018-Feb-09 10:30N 36°47' W 076°18'3 1.8
2018-Feb-09 09:00N 36°45' W 076°18'1 0.1
2018-Feb-08 20:00N 36°46' W 076°18'4 2.2
2018-Feb-08 18:00N 36°51' W 076°18'1 1.5
2018-Feb-08 17:00N 36°52' W 076°19'0 0.2
2018-Feb-08 16:00N 36°52' W 076°19'5 1.3
2018-Feb-08 12:00N 36°46' W 076°18'1 1.6
2018-Feb-08 11:30N 36°46' W 076°18'0 0.0
2018-Feb-08 11:00N 36°46' W 076°18'0 0.0
2018-Feb-08 10:30N 36°46' W 076°18'0 0.0
2018-Feb-08 09:30N 36°46' W 076°18'0 0.0
2018-Feb-08 08:30N 36°46' W 076°18'0 0.0
2018-Feb-08 07:30N 36°46' W 076°18'0 0.0
2018-Feb-08 06:30N 36°46' W 076°18'0 0.0
2018-Feb-08 03:30N 36°46' W 076°18'0 0.0
2018-Feb-08 03:00N 36°46' W 076°18'0 0.0
2018-Feb-08 02:30N 36°46' W 076°18'0 0.0
2018-Feb-08 02:01N 36°46' W 076°18'0 0.0
2018-Feb-08 01:30N 36°46' W 076°18'0 0.0
2018-Feb-08 01:01N 36°46' W 076°18'0 0.0
2018-Feb-08 00:30N 36°46' W 076°18'0 0.0
2018-Feb-08 00:01N 36°46' W 076°18'0 0.0
2018-Feb-07 23:31N 36°46' W 076°18'0 0.0
2018-Feb-07 23:00N 36°46' W 076°18'0 0.0
2018-Feb-07 22:30N 36°46' W 076°18'0 0.0
2018-Feb-07 22:00N 36°46' W 076°18'0 0.0
2018-Feb-07 21:31N 36°46' W 076°18'0 0.0
2018-Feb-07 09:30N 36°46' W 076°18'0 0.0
2018-Feb-07 09:00N 36°46' W 076°18'0 0.0
2018-Feb-07 08:31N 36°46' W 076°18'0 0.0
2018-Feb-07 08:00N 36°46' W 076°18'0 0.0
2018-Feb-07 07:30N 36°46' W 076°18'0 0.0
2018-Feb-07 07:00N 36°46' W 076°18'0 0.0
2018-Feb-07 06:31N 36°46' W 076°18'0 0.0
2018-Feb-07 06:00N 36°46' W 076°18'0 0.0
2018-Feb-07 05:30N 36°46' W 076°18'0 0.0
2018-Feb-07 04:00N 36°46' W 076°18'0 0.0
2018-Feb-07 03:30N 36°46' W 076°18'0 0.0
2018-Feb-07 03:00N 36°46' W 076°18'0 0.0
2018-Feb-07 02:30N 36°46' W 076°18'0 0.0
2018-Feb-07 02:00N 36°46' W 076°18'0 0.0
2018-Feb-07 01:30N 36°46' W 076°18'0 0.0
2018-Feb-07 01:00N 36°46' W 076°18'0 0.5
2018-Feb-07 00:30N 36°46' W 076°18'0 0.7
2018-Feb-07 00:00N 36°46' W 076°18'0 0.1
2018-Feb-06 23:30N 36°46' W 076°18'1 1.5
2018-Feb-06 23:00N 36°47' W 076°18'5 5.1
2018-Feb-06 22:00N 36°52' W 076°19'2 3.1
2018-Feb-06 21:30N 36°52' W 076°21'2 3.5
2018-Feb-06 20:59N 36°54' W 076°20'3 5.6
2018-Feb-06 20:26N 36°57' W 076°20'2 5.2
2018-Feb-06 20:00N 36°59' W 076°19'3 6.3
2018-Feb-06 19:30N 37°01' W 076°16'3 5.9
2018-Feb-06 18:59N 37°01' W 076°12'3 5.5
2018-Feb-06 18:29N 37°04' W 076°10'3 5.9
2018-Feb-06 17:58N 37°06' W 076°09'3 5.9
2018-Feb-06 17:28N 37°09' W 076°07'8 1.8
2018-Feb-06 12:57N 37°16' W 076°01'4 4.3
2018-Feb-06 12:09N 37°13' W 076°04'4 6.0
2018-Feb-06 11:24N 37°09' W 076°07'3 6.5
2018-Feb-06 10:59N 37°07' W 076°09'4 6.6
2018-Feb-06 10:23N 37°03' W 076°10'2 6.4
2018-Feb-06 10:00N 37°01' W 076°12'4 6.8
2018-Feb-06 09:28N 37°00' W 076°16'4 7.3
2018-Feb-06 08:58N 36°58' W 076°20'3 7.1
2018-Feb-06 08:30N 36°55' W 076°20'3 5.3
2018-Feb-06 08:00N 36°52' W 076°21'1 1.4
2018-Feb-06 07:28N 36°53' W 076°20'4 9.0
2018-Feb-06 07:00N 36°49' W 076°17'3 6.7
2018-Feb-06 06:30N 36°46' W 076°18'0 0.8
2018-Feb-06 06:00N 36°46' W 076°18'  
Track history (hours):
 
Tides and Currents Weather Stations Pressure Air Temp Water Temp Dewpoint Dewpoint Depression Visibility Wind Speed Wind Dir Waves Ship Positions

MiSS Morgan

Owner: SEAWARD MARINE CORPORATION, CHESAPEAKE, VA. More information available from US FCC via Universal Licensing System and Coast Guard Vessel Documentation Center.

Last reported at 2018-Feb-13 22:20 UTC. Time now 2018-Feb-24 17:59 UTC.
Position N 36°46' W 076°18'.
Warning: this ship's position is 10 days out of date.

Length 22 m; draft 3 m.

Type: Towing. MMSI: 367028740.

Date/timePositionNaut miles runAvg speedWind from/ knotsBaromVisibWave heightAir tempDewpointWater temp
2018-Feb-13 22:20N 36°46' W 076°18'0 0.1
2018-Feb-13 22:00N 36°46' W 076°18'0 0.0
2018-Feb-13 21:30N 36°46' W 076°18'0 0.0
2018-Feb-13 21:00N 36°46' W 076°18'0 0.2
2018-Feb-13 20:30N 36°46' W 076°18'0 0.2
2018-Feb-13 20:00N 36°46' W 076°18'1 2.1
2018-Feb-13 19:30N 36°47' W 076°18'1 1.9
2018-Feb-13 19:00N 36°48' W 076°18'2 3.3
2018-Feb-13 18:30N 36°49' W 076°17'1 2.8
2018-Feb-13 18:00N 36°51' W 076°18'2 4.4
2018-Feb-13 17:30N 36°52' W 076°20'3 4.5
2018-Feb-13 16:56N 36°55' W 076°20'2 4.4
2018-Feb-13 16:26N 36°57' W 076°20'1 1.7
2018-Feb-13 15:56N 36°58' W 076°20'0 0.2
2018-Feb-13 15:30N 36°58' W 076°20'2 4.3
2018-Feb-13 15:00N 36°55' W 076°20'4 8.6
2018-Feb-13 14:30N 36°51' W 076°19'4 7.7
2018-Feb-13 14:00N 36°48' W 076°18'  
2018-Feb-09 10:30N 36°47' W 076°18'3 1.8
2018-Feb-09 09:00N 36°45' W 076°18'1 0.1
2018-Feb-08 20:00N 36°46' W 076°18'4 2.2
2018-Feb-08 18:00N 36°51' W 076°18'1 1.5
2018-Feb-08 17:00N 36°52' W 076°19'0 0.2
2018-Feb-08 16:00N 36°52' W 076°19'5 1.3
2018-Feb-08 12:00N 36°46' W 076°18'1 1.6
2018-Feb-08 11:30N 36°46' W 076°18'0 0.0
2018-Feb-08 11:00N 36°46' W 076°18'0 0.0
2018-Feb-08 10:30N 36°46' W 076°18'0 0.0
2018-Feb-08 09:30N 36°46' W 076°18'0 0.0
2018-Feb-08 08:30N 36°46' W 076°18'0 0.0
2018-Feb-08 07:30N 36°46' W 076°18'0 0.0
2018-Feb-08 06:30N 36°46' W 076°18'0 0.0
2018-Feb-08 03:30N 36°46' W 076°18'0 0.0
2018-Feb-08 03:00N 36°46' W 076°18'0 0.0
2018-Feb-08 02:30N 36°46' W 076°18'0 0.0
2018-Feb-08 02:01N 36°46' W 076°18'0 0.0
2018-Feb-08 01:30N 36°46' W 076°18'0 0.0
2018-Feb-08 01:01N 36°46' W 076°18'0 0.0
2018-Feb-08 00:30N 36°46' W 076°18'0 0.0
2018-Feb-08 00:01N 36°46' W 076°18'0 0.0
2018-Feb-07 23:31N 36°46' W 076°18'0 0.0
2018-Feb-07 23:00N 36°46' W 076°18'0 0.0
2018-Feb-07 22:30N 36°46' W 076°18'0 0.0
2018-Feb-07 22:00N 36°46' W 076°18'0 0.0
2018-Feb-07 21:31N 36°46' W 076°18'0 0.0
2018-Feb-07 09:30N 36°46' W 076°18'0 0.0
2018-Feb-07 09:00N 36°46' W 076°18'0 0.0
2018-Feb-07 08:31N 36°46' W 076°18'0 0.0
2018-Feb-07 08:00N 36°46' W 076°18'0 0.0
2018-Feb-07 07:30N 36°46' W 076°18'0 0.0
2018-Feb-07 07:00N 36°46' W 076°18'0 0.0
2018-Feb-07 06:31N 36°46' W 076°18'0 0.0
2018-Feb-07 06:00N 36°46' W 076°18'0 0.0
2018-Feb-07 05:30N 36°46' W 076°18'0 0.0
2018-Feb-07 04:00N 36°46' W 076°18'0 0.0
2018-Feb-07 03:30N 36°46' W 076°18'0 0.0
2018-Feb-07 03:00N 36°46' W 076°18'0 0.0
2018-Feb-07 02:30N 36°46' W 076°18'0 0.0
2018-Feb-07 02:00N 36°46' W 076°18'0 0.0
2018-Feb-07 01:30N 36°46' W 076°18'0 0.0
2018-Feb-07 01:00N 36°46' W 076°18'0 0.5
2018-Feb-07 00:30N 36°46' W 076°18'0 0.7
2018-Feb-07 00:00N 36°46' W 076°18'0 0.1
2018-Feb-06 23:30N 36°46' W 076°18'1 1.5
2018-Feb-06 23:00N 36°47' W 076°18'5 5.1
2018-Feb-06 22:00N 36°52' W 076°19'2 3.1
2018-Feb-06 21:30N 36°52' W 076°21'2 3.5
2018-Feb-06 20:59N 36°54' W 076°20'3 5.6
2018-Feb-06 20:26N 36°57' W 076°20'2 5.2
2018-Feb-06 20:00N 36°59' W 076°19'3 6.3
2018-Feb-06 19:30N 37°01' W 076°16'3 5.9
2018-Feb-06 18:59N 37°01' W 076°12'3 5.5
2018-Feb-06 18:29N 37°04' W 076°10'3 5.9
2018-Feb-06 17:58N 37°06' W 076°09'3 5.9
2018-Feb-06 17:28N 37°09' W 076°07'8 1.8
2018-Feb-06 12:57N 37°16' W 076°01'4 4.3
2018-Feb-06 12:09N 37°13' W 076°04'4 6.0
2018-Feb-06 11:24N 37°09' W 076°07'3 6.5
2018-Feb-06 10:59N 37°07' W 076°09'4 6.6
2018-Feb-06 10:23N 37°03' W 076°10'2 6.4
2018-Feb-06 10:00N 37°01' W 076°12'4 6.8
2018-Feb-06 09:28N 37°00' W 076°16'4 7.3
2018-Feb-06 08:58N 36°58' W 076°20'3 7.1
2018-Feb-06 08:30N 36°55' W 076°20'3 5.3
2018-Feb-06 08:00N 36°52' W 076°21'1 1.4
2018-Feb-06 07:28N 36°53' W 076°20'4 9.0
2018-Feb-06 07:00N 36°49' W 076°17'3 6.7
2018-Feb-06 06:30N 36°46' W 076°18'0 0.8
2018-Feb-06 06:00N 36°46' W 076°18'  

Dump ship's entire track history